sensor_id;sensor_type;location;lat;lon;timestamp;pressure;altitude;pressure_sealevel;temperature;humidity
38630;BME280;24384;51.988;4.644;2023-03-13T00:01:02;100226.84;;;8.48;100.00
38630;BME280;24384;51.988;4.644;2023-03-13T00:03:33;100208.56;;;8.45;100.00
38630;BME280;24384;51.988;4.644;2023-03-13T00:05:59;100201.56;;;8.44;100.00
38630;BME280;24384;51.988;4.644;2023-03-13T00:08:25;100190.16;;;8.45;100.00
38630;BME280;24384;51.988;4.644;2023-03-13T00:10:52;100187.66;;;8.40;100.00
38630;BME280;24384;51.988;4.644;2023-03-13T00:13:17;100178.84;;;8.41;100.00
38630;BME280;24384;51.988;4.644;2023-03-13T00:15:43;100169.19;;;8.44;100.00
38630;BME280;24384;51.988;4.644;2023-03-13T00:18:08;100179.72;;;8.42;100.00
38630;BME280;24384;51.988;4.644;2023-03-13T00:20:33;100160.44;;;8.41;100.00
38630;BME280;24384;51.988;4.644;2023-03-13T00:22:59;100141.97;;;8.45;100.00
38630;BME280;24384;51.988;4.644;2023-03-13T00:25:24;100152.28;;;8.51;100.00
38630;BME280;24384;51.988;4.644;2023-03-13T00:27:49;100133.94;;;8.49;100.00
38630;BME280;24384;51.988;4.644;2023-03-13T00:30:14;100111.91;;;8.53;100.00
38630;BME280;24384;51.988;4.644;2023-03-13T00:32:40;100113.63;;;8.54;100.00
38630;BME280;24384;51.988;4.644;2023-03-13T00:35:06;100127.56;;;8.56;100.00
38630;BME280;24384;51.988;4.644;2023-03-13T00:37:31;100112.47;;;8.62;100.00
38630;BME280;24384;51.988;4.644;2023-03-13T00:39:56;100100.31;;;8.59;100.00
38630;BME280;24384;51.988;4.644;2023-03-13T00:42:22;100100.94;;;8.66;100.00
38630;BME280;24384;51.988;4.644;2023-03-13T00:44:47;100097.56;;;8.62;100.00
38630;BME280;24384;51.988;4.644;2023-03-13T00:47:12;100070.34;;;8.63;100.00
38630;BME280;24384;51.988;4.644;2023-03-13T00:49:37;100077.16;;;8.69;100.00
38630;BME280;24384;51.988;4.644;2023-03-13T00:52:02;100077.88;;;8.72;100.00
38630;BME280;24384;51.988;4.644;2023-03-13T00:54:28;100059.44;;;8.74;100.00
38630;BME280;24384;51.988;4.644;2023-03-13T00:56:53;100055.06;;;8.74;100.00
38630;BME280;24384;51.988;4.644;2023-03-13T00:59:18;100059.31;;;8.77;100.00
38630;BME280;24384;51.988;4.644;2023-03-13T01:01:43;100055.72;;;8.80;100.00
38630;BME280;24384;51.988;4.644;2023-03-13T01:04:09;100041.59;;;8.82;100.00
38630;BME280;24384;51.988;4.644;2023-03-13T01:06:36;100043.31;;;8.83;100.00
38630;BME280;24384;51.988;4.644;2023-03-13T01:09:02;100036.28;;;8.84;100.00
38630;BME280;24384;51.988;4.644;2023-03-13T01:11:29;100034.44;;;8.86;100.00
38630;BME280;24384;51.988;4.644;2023-03-13T01:13:55;100015.97;;;8.87;100.00
38630;BME280;24384;51.988;4.644;2023-03-13T01:16:21;100008.94;;;8.88;100.00
38630;BME280;24384;51.988;4.644;2023-03-13T01:18:48;99999.19;;;8.91;100.00
38630;BME280;24384;51.988;4.644;2023-03-13T01:21:14;99996.38;;;8.96;100.00
38630;BME280;24384;51.988;4.644;2023-03-13T01:23:40;99990.94;;;9.01;100.00
38630;BME280;24384;51.988;4.644;2023-03-13T01:26:07;99988.94;;;9.06;100.00
38630;BME280;24384;51.988;4.644;2023-03-13T01:28:33;99975.69;;;9.09;100.00
38630;BME280;24384;51.988;4.644;2023-03-13T01:30:59;99989.63;;;9.11;100.00
38630;BME280;24384;51.988;4.644;2023-03-13T01:33:24;99999.94;;;9.16;100.00
38630;BME280;24384;51.988;4.644;2023-03-13T01:35:50;99965.56;;;9.20;100.00
38630;BME280;24384;51.988;4.644;2023-03-13T01:38:15;99973.44;;;9.20;100.00
38630;BME280;24384;51.988;4.644;2023-03-13T01:40:42;99955.78;;;9.24;100.00
38630;BME280;24384;51.988;4.644;2023-03-13T01:43:14;99952.22;;;9.25;100.00
38630;BME280;24384;51.988;4.644;2023-03-13T01:48:14;99937.69;;;9.37;100.00
38630;BME280;24384;51.988;4.644;2023-03-13T01:50:40;99935.06;;;9.37;100.00
38630;BME280;24384;51.988;4.644;2023-03-13T01:53:05;99951.44;;;9.43;100.00
38630;BME280;24384;51.988;4.644;2023-03-13T01:55:32;99937.38;;;9.44;100.00
38630;BME280;24384;51.988;4.644;2023-03-13T01:57:57;99914.53;;;9.45;100.00
38630;BME280;24384;51.988;4.644;2023-03-13T02:00:24;99915.19;;;9.50;100.00
38630;BME280;24384;51.988;4.644;2023-03-13T02:02:51;99904.69;;;9.50;100.00
38630;BME280;24384;51.988;4.644;2023-03-13T02:05:19;99906.28;;;9.53;100.00
38630;BME280;24384;51.988;4.644;2023-03-13T02:07:49;99902.75;;;9.54;100.00
38630;BME280;24384;51.988;4.644;2023-03-13T02:10:19;99900.84;;;9.57;100.00
38630;BME280;24384;51.988;4.644;2023-03-13T02:12:46;99877.94;;;9.59;100.00
38630;BME280;24384;51.988;4.644;2023-03-13T02:15:13;99877.81;;;9.62;100.00
38630;BME280;24384;51.988;4.644;2023-03-13T02:17:39;99867.22;;;9.64;100.00
38630;BME280;24384;51.988;4.644;2023-03-13T02:20:05;99881.16;;;9.66;100.00
38630;BME280;24384;51.988;4.644;2023-03-13T02:25:12;99865.94;;;9.73;100.00
38630;BME280;24384;51.988;4.644;2023-03-13T02:27:40;99879.91;;;9.75;100.00
38630;BME280;24384;51.988;4.644;2023-03-13T02:30:07;99881.59;;;9.76;100.00
38630;BME280;24384;51.988;4.644;2023-03-13T02:32:33;99858.03;;;9.73;100.00
38630;BME280;24384;51.988;4.644;2023-03-13T02:35:01;99865.84;;;9.74;100.00
38630;BME280;24384;51.988;4.644;2023-03-13T02:37:28;99867.38;;;9.80;100.00
38630;BME280;24384;51.988;4.644;2023-03-13T02:39:54;99864.31;;;9.89;100.00
38630;BME280;24384;51.988;4.644;2023-03-13T02:42:21;99877.34;;;9.92;100.00
38630;BME280;24384;51.988;4.644;2023-03-13T02:44:47;99861.47;;;9.94;100.00
38630;BME280;24384;51.988;4.644;2023-03-13T02:47:16;99871.88;;;9.97;100.00
38630;BME280;24384;51.988;4.644;2023-03-13T02:49:41;99858.63;;;9.98;100.00
38630;BME280;24384;51.988;4.644;2023-03-13T02:52:10;99863.69;;;10.03;100.00
38630;BME280;24384;51.988;4.644;2023-03-13T02:54:37;99864.38;;;10.07;100.00
38630;BME280;24384;51.988;4.644;2023-03-13T02:57:04;99850.16;;;10.11;100.00
38630;BME280;24384;51.988;4.644;2023-03-13T02:59:29;99859.69;;;10.13;100.00
38630;BME280;24384;51.988;4.644;2023-03-13T03:01:54;99852.44;;;10.18;100.00
38630;BME280;24384;51.988;4.644;2023-03-13T03:04:21;99823.22;;;10.23;100.00
38630;BME280;24384;51.988;4.644;2023-03-13T03:06:47;99842.22;;;10.30;100.00
38630;BME280;24384;51.988;4.644;2023-03-13T03:09:12;99828.06;;;10.32;100.00
38630;BME280;24384;51.988;4.644;2023-03-13T03:11:38;99815.66;;;10.34;100.00
38630;BME280;24384;51.988;4.644;2023-03-13T03:14:03;99819.13;;;10.36;100.00
38630;BME280;24384;51.988;4.644;2023-03-13T03:16:28;99800.50;;;10.39;100.00
38630;BME280;24384;51.988;4.644;2023-03-13T03:18:54;99808.13;;;10.46;100.00
38630;BME280;24384;51.988;4.644;2023-03-13T03:21:19;99813.16;;;10.50;100.00
38630;BME280;24384;51.988;4.644;2023-03-13T03:23:45;99812.06;;;10.54;100.00
38630;BME280;24384;51.988;4.644;2023-03-13T03:26:10;99804.06;;;10.56;100.00
38630;BME280;24384;51.988;4.644;2023-03-13T03:28:35;99807.75;;;10.53;100.00
38630;BME280;24384;51.988;4.644;2023-03-13T03:31:06;99814.69;;;10.54;100.00
38630;BME280;24384;51.988;4.644;2023-03-13T03:33:32;99816.25;;;10.59;100.00
38630;BME280;24384;51.988;4.644;2023-03-13T03:36:04;99809.44;;;10.54;100.00
38630;BME280;24384;51.988;4.644;2023-03-13T03:38:30;99813.63;;;10.59;100.00
38630;BME280;24384;51.988;4.644;2023-03-13T03:40:55;99808.59;;;10.54;100.00
38630;BME280;24384;51.988;4.644;2023-03-13T03:43:20;99814.53;;;10.57;100.00
38630;BME280;24384;51.988;4.644;2023-03-13T03:45:46;99806.63;;;10.57;100.00
38630;BME280;24384;51.988;4.644;2023-03-13T03:48:11;99789.19;;;10.55;100.00
38630;BME280;24384;51.988;4.644;2023-03-13T03:50:36;99809.28;;;10.57;100.00
38630;BME280;24384;51.988;4.644;2023-03-13T03:53:02;99805.09;;;10.53;100.00
38630;BME280;24384;51.988;4.644;2023-03-13T03:55:27;99785.78;;;10.53;100.00
38630;BME280;24384;51.988;4.644;2023-03-13T03:57:52;99797.97;;;10.55;100.00
38630;BME280;24384;51.988;4.644;2023-03-13T04:00:18;99791.75;;;10.56;100.00
38630;BME280;24384;51.988;4.644;2023-03-13T04:02:43;99799.91;;;10.52;100.00
38630;BME280;24384;51.988;4.644;2023-03-13T04:05:08;99778.56;;;10.56;100.00
38630;BME280;24384;51.988;4.644;2023-03-13T04:07:34;99780.44;;;10.54;100.00
38630;BME280;24384;51.988;4.644;2023-03-13T04:09:59;99777.72;;;10.56;100.00
38630;BME280;24384;51.988;4.644;2023-03-13T04:12:25;99779.72;;;10.51;100.00
38630;BME280;24384;51.988;4.644;2023-03-13T04:14:50;99776.19;;;10.52;100.00
38630;BME280;24384;51.988;4.644;2023-03-13T04:17:15;99767.31;;;10.53;100.00
38630;BME280;24384;51.988;4.644;2023-03-13T04:19:40;99773.53;;;10.52;100.00
38630;BME280;24384;51.988;4.644;2023-03-13T04:22:06;99763.63;;;10.57;100.00
38630;BME280;24384;51.988;4.644;2023-03-13T04:24:31;99753.22;;;10.54;100.00
38630;BME280;24384;51.988;4.644;2023-03-13T04:26:56;99759.09;;;10.59;100.00
38630;BME280;24384;51.988;4.644;2023-03-13T04:29:21;99751.34;;;10.56;100.00
38630;BME280;24384;51.988;4.644;2023-03-13T04:31:47;99759.94;;;10.60;100.00
38630;BME280;24384;51.988;4.644;2023-03-13T04:34:12;99764.22;;;10.62;100.00
38630;BME280;24384;51.988;4.644;2023-03-13T04:36:37;99769.34;;;10.65;100.00
38630;BME280;24384;51.988;4.644;2023-03-13T04:39:03;99754.44;;;10.64;100.00
38630;BME280;24384;51.988;4.644;2023-03-13T04:41:28;99754.28;;;10.67;100.00
38630;BME280;24384;51.988;4.644;2023-03-13T04:43:54;99755.94;;;10.70;100.00
38630;BME280;24384;51.988;4.644;2023-03-13T04:46:19;99758.31;;;10.74;100.00
38630;BME280;24384;51.988;4.644;2023-03-13T04:48:45;99751.97;;;10.79;100.00
38630;BME280;24384;51.988;4.644;2023-03-13T04:51:11;99752.66;;;10.82;100.00
38630;BME280;24384;51.988;4.644;2023-03-13T04:53:36;99733.34;;;10.82;100.00
38630;BME280;24384;51.988;4.644;2023-03-13T04:56:01;99727.13;;;10.83;100.00
38630;BME280;24384;51.988;4.644;2023-03-13T04:58:27;99727.84;;;10.86;100.00
38630;BME280;24384;51.988;4.644;2023-03-13T05:00:54;99738.00;;;10.94;100.00
38630;BME280;24384;51.988;4.644;2023-03-13T05:03:21;99735.97;;;10.99;100.00
38630;BME280;24384;51.988;4.644;2023-03-13T05:05:46;99721.69;;;11.03;98.92
38630;BME280;24384;51.988;4.644;2023-03-13T05:08:11;99722.28;;;11.08;99.03
38630;BME280;24384;51.988;4.644;2023-03-13T05:10:37;99726.47;;;11.13;98.08
38630;BME280;24384;51.988;4.644;2023-03-13T05:13:02;99710.31;;;11.19;97.09
38630;BME280;24384;51.988;4.644;2023-03-13T05:15:27;99695.31;;;11.19;97.18
38630;BME280;24384;51.988;4.644;2023-03-13T05:17:52;99702.31;;;11.20;97.09
38630;BME280;24384;51.988;4.644;2023-03-13T05:20:18;99697.19;;;11.17;96.59
38630;BME280;24384;51.988;4.644;2023-03-13T05:22:43;99674.63;;;11.11;96.63
38630;BME280;24384;51.988;4.644;2023-03-13T05:25:08;99704.69;;;11.25;95.11
38630;BME280;24384;51.988;4.644;2023-03-13T05:27:34;99707.19;;;11.28;94.74
38630;BME280;24384;51.988;4.644;2023-03-13T05:29:59;99688.63;;;11.29;94.24
38630;BME280;24384;51.988;4.644;2023-03-13T05:32:25;99687.00;;;11.27;93.97
38630;BME280;24384;51.988;4.644;2023-03-13T05:34:50;99682.38;;;11.31;92.93
38630;BME280;24384;51.988;4.644;2023-03-13T05:37:15;99686.31;;;11.39;91.94
38630;BME280;24384;51.988;4.644;2023-03-13T05:39:40;99670.47;;;11.39;91.74
38630;BME280;24384;51.988;4.644;2023-03-13T05:42:06;99690.84;;;11.37;91.87
38630;BME280;24384;51.988;4.644;2023-03-13T05:44:31;99681.13;;;11.38;91.51
38630;BME280;24384;51.988;4.644;2023-03-13T05:46:56;99670.31;;;11.42;90.54
38630;BME280;24384;51.988;4.644;2023-03-13T05:49:22;99672.69;;;11.47;90.19
38630;BME280;24384;51.988;4.644;2023-03-13T05:51:47;99681.63;;;11.44;90.57
38630;BME280;24384;51.988;4.644;2023-03-13T05:54:12;99678.91;;;11.46;90.50
38630;BME280;24384;51.988;4.644;2023-03-13T05:56:37;99663.16;;;11.44;90.57
38630;BME280;24384;51.988;4.644;2023-03-13T05:59:04;99667.66;;;11.42;90.79
38630;BME280;24384;51.988;4.644;2023-03-13T06:01:29;99677.47;;;11.40;91.42
38630;BME280;24384;51.988;4.644;2023-03-13T06:03:55;99672.88;;;11.44;90.60
38630;BME280;24384;51.988;4.644;2023-03-13T06:06:20;99660.50;;;11.44;90.75
38630;BME280;24384;51.988;4.644;2023-03-13T06:08:45;99656.19;;;11.43;90.68
38630;BME280;24384;51.988;4.644;2023-03-13T06:11:11;99678.31;;;11.41;90.96
38630;BME280;24384;51.988;4.644;2023-03-13T06:13:36;99673.03;;;11.41;90.79
38630;BME280;24384;51.988;4.644;2023-03-13T06:16:01;99677.31;;;11.43;91.04
38630;BME280;24384;51.988;4.644;2023-03-13T06:18:26;99660.59;;;11.43;91.32
38630;BME280;24384;51.988;4.644;2023-03-13T06:20:58;99672.38;;;11.37;91.62
38630;BME280;24384;51.988;4.644;2023-03-13T06:23:24;99664.59;;;11.34;92.91
38630;BME280;24384;51.988;4.644;2023-03-13T06:25:49;99682.47;;;11.29;93.45
38630;BME280;24384;51.988;4.644;2023-03-13T06:28:15;99664.31;;;11.23;94.09
38630;BME280;24384;51.988;4.644;2023-03-13T06:30:40;99678.97;;;11.13;95.45
38630;BME280;24384;51.988;4.644;2023-03-13T06:33:06;99702.19;;;11.06;96.48
38630;BME280;24384;51.988;4.644;2023-03-13T06:35:31;99675.88;;;11.04;96.76
38630;BME280;24384;51.988;4.644;2023-03-13T06:37:57;99690.19;;;11.00;97.63
38630;BME280;24384;51.988;4.644;2023-03-13T06:40:23;99689.72;;;10.92;98.82
38630;BME280;24384;51.988;4.644;2023-03-13T06:42:48;99702.31;;;10.87;99.31
38630;BME280;24384;51.988;4.644;2023-03-13T06:45:13;99693.00;;;10.80;100.00
38630;BME280;24384;51.988;4.644;2023-03-13T06:47:38;99689.75;;;10.74;100.00
38630;BME280;24384;51.988;4.644;2023-03-13T06:50:04;99684.56;;;10.73;100.00
38630;BME280;24384;51.988;4.644;2023-03-13T06:52:29;99690.25;;;10.65;100.00
38630;BME280;24384;51.988;4.644;2023-03-13T06:54:55;99678.06;;;10.63;100.00
38630;BME280;24384;51.988;4.644;2023-03-13T06:57:21;99679.94;;;10.61;100.00
38630;BME280;24384;51.988;4.644;2023-03-13T06:59:46;99689.72;;;10.59;100.00
38630;BME280;24384;51.988;4.644;2023-03-13T07:02:12;99679.25;;;10.57;100.00
38630;BME280;24384;51.988;4.644;2023-03-13T07:04:37;99682.72;;;10.57;100.00
38630;BME280;24384;51.988;4.644;2023-03-13T07:07:02;99685.28;;;10.59;100.00
38630;BME280;24384;51.988;4.644;2023-03-13T07:09:28;99684.44;;;10.59;100.00
38630;BME280;24384;51.988;4.644;2023-03-13T07:11:53;99676.44;;;10.60;100.00
38630;BME280;24384;51.988;4.644;2023-03-13T07:14:19;99666.66;;;10.62;100.00
38630;BME280;24384;51.988;4.644;2023-03-13T07:16:44;99668.53;;;10.60;100.00
38630;BME280;24384;51.988;4.644;2023-03-13T07:19:10;99690.56;;;10.59;100.00
38630;BME280;24384;51.988;4.644;2023-03-13T07:21:35;99693.13;;;10.61;100.00
38630;BME280;24384;51.988;4.644;2023-03-13T07:24:00;99686.13;;;10.60;100.00
38630;BME280;24384;51.988;4.644;2023-03-13T07:26:25;99684.44;;;10.59;100.00
38630;BME280;24384;51.988;4.644;2023-03-13T07:28:51;99688.84;;;10.58;100.00
38630;BME280;24384;51.988;4.644;2023-03-13T07:31:17;99693.94;;;10.61;100.00
38630;BME280;24384;51.988;4.644;2023-03-13T07:33:43;99677.06;;;10.65;100.00
38630;BME280;24384;51.988;4.644;2023-03-13T07:36:09;99705.81;;;10.70;100.00
38630;BME280;24384;51.988;4.644;2023-03-13T07:38:34;99706.25;;;10.78;100.00
38630;BME280;24384;51.988;4.644;2023-03-13T07:41:00;99690.84;;;10.88;100.00
38630;BME280;24384;51.988;4.644;2023-03-13T07:43:25;99682.03;;;10.87;100.00
38630;BME280;24384;51.988;4.644;2023-03-13T07:48:16;99673.72;;;10.95;100.00
38630;BME280;24384;51.988;4.644;2023-03-13T07:50:41;99674.19;;;11.03;99.70
38630;BME280;24384;51.988;4.644;2023-03-13T07:53:06;99675.78;;;11.06;100.00
38630;BME280;24384;51.988;4.644;2023-03-13T07:55:32;99649.00;;;11.14;98.90
38630;BME280;24384;51.988;4.644;2023-03-13T07:57:58;99680.31;;;11.20;97.90
38630;BME280;24384;51.988;4.644;2023-03-13T08:00:23;99655.97;;;11.15;98.97
38630;BME280;24384;51.988;4.644;2023-03-13T08:02:48;99674.53;;;11.13;99.54
38630;BME280;24384;51.988;4.644;2023-03-13T08:05:13;99659.22;;;11.20;99.58
38630;BME280;24384;51.988;4.644;2023-03-13T08:07:39;99656.88;;;11.31;99.66
38630;BME280;24384;51.988;4.644;2023-03-13T08:10:04;99674.66;;;11.43;99.29
38630;BME280;24384;51.988;4.644;2023-03-13T08:12:30;99645.44;;;11.46;97.62
38630;BME280;24384;51.988;4.644;2023-03-13T08:14:55;99668.59;;;11.41;98.20
38630;BME280;24384;51.988;4.644;2023-03-13T08:17:21;99664.44;;;11.37;98.18
38630;BME280;24384;51.988;4.644;2023-03-13T08:19:46;99680.53;;;11.33;97.95
38630;BME280;24384;51.988;4.644;2023-03-13T08:22:11;99662.31;;;11.28;99.01
38630;BME280;24384;51.988;4.644;2023-03-13T08:24:37;99658.13;;;11.24;98.00
38630;BME280;24384;51.988;4.644;2023-03-13T08:27:02;99655.47;;;11.24;99.63
38630;BME280;24384;51.988;4.644;2023-03-13T08:29:29;99659.91;;;11.23;98.51
38630;BME280;24384;51.988;4.644;2023-03-13T08:31:54;99628.41;;;11.20;98.76
38630;BME280;24384;51.988;4.644;2023-03-13T08:34:19;99628.16;;;11.25;98.13
38630;BME280;24384;51.988;4.644;2023-03-13T08:36:45;99658.53;;;11.32;97.76
38630;BME280;24384;51.988;4.644;2023-03-13T08:39:14;99640.16;;;11.46;94.02
38630;BME280;24384;51.988;4.644;2023-03-13T08:41:40;99648.91;;;11.63;95.09
38630;BME280;24384;51.988;4.644;2023-03-13T08:44:06;99645.44;;;11.62;94.77
38630;BME280;24384;51.988;4.644;2023-03-13T08:46:33;99662.63;;;11.86;92.02
38630;BME280;24384;51.988;4.644;2023-03-13T08:48:59;99618.28;;;12.07;91.38
38630;BME280;24384;51.988;4.644;2023-03-13T08:51:25;99631.00;;;12.30;89.74
38630;BME280;24384;51.988;4.644;2023-03-13T08:53:50;99644.41;;;12.42;88.97
38630;BME280;24384;51.988;4.644;2023-03-13T08:56:17;99635.06;;;12.50;88.73
38630;BME280;24384;51.988;4.644;2023-03-13T08:58:43;99605.13;;;12.79;89.12
38630;BME280;24384;51.988;4.644;2023-03-13T09:01:09;99610.25;;;12.82;86.83
38630;BME280;24384;51.988;4.644;2023-03-13T09:03:35;99597.50;;;12.88;85.18
38630;BME280;24384;51.988;4.644;2023-03-13T09:06:01;99600.13;;;13.03;84.74
38630;BME280;24384;51.988;4.644;2023-03-13T09:08:26;99613.31;;;13.32;83.20
38630;BME280;24384;51.988;4.644;2023-03-13T09:10:59;99584.97;;;13.34;83.03
38630;BME280;24384;51.988;4.644;2023-03-13T09:13:25;99587.44;;;13.22;81.49
38630;BME280;24384;51.988;4.644;2023-03-13T09:15:54;99577.38;;;13.28;83.29
38630;BME280;24384;51.988;4.644;2023-03-13T09:18:20;99551.34;;;13.07;81.48
38630;BME280;24384;51.988;4.644;2023-03-13T09:20:45;99581.97;;;12.97;82.31
38630;BME280;24384;51.988;4.644;2023-03-13T09:23:10;99569.19;;;13.18;81.47
38630;BME280;24384;51.988;4.644;2023-03-13T09:25:37;99572.25;;;13.39;79.10
38630;BME280;24384;51.988;4.644;2023-03-13T09:28:02;99576.91;;;13.35;79.42
38630;BME280;24384;51.988;4.644;2023-03-13T09:30:27;99559.13;;;13.37;80.09
38630;BME280;24384;51.988;4.644;2023-03-13T09:32:52;99571.22;;;13.41;79.28
38630;BME280;24384;51.988;4.644;2023-03-13T09:35:17;99562.13;;;13.31;79.35
38630;BME280;24384;51.988;4.644;2023-03-13T09:37:43;99563.78;;;13.19;81.41
38630;BME280;24384;51.988;4.644;2023-03-13T09:40:09;99575.28;;;13.47;79.85
38630;BME280;24384;51.988;4.644;2023-03-13T09:42:40;99562.97;;;13.73;79.32
38630;BME280;24384;51.988;4.644;2023-03-13T09:45:17;99542.50;;;13.75;78.87
38630;BME280;24384;51.988;4.644;2023-03-13T09:47:51;99532.09;;;13.59;78.80
38630;BME280;24384;51.988;4.644;2023-03-13T09:50:28;99536.38;;;13.75;79.30
38630;BME280;24384;51.988;4.644;2023-03-13T09:52:56;99509.50;;;13.67;77.55
38630;BME280;24384;51.988;4.644;2023-03-13T09:55:27;99521.59;;;13.58;78.19
38630;BME280;24384;51.988;4.644;2023-03-13T09:57:55;99541.38;;;13.92;76.46
38630;BME280;24384;51.988;4.644;2023-03-13T10:00:33;99539.88;;;13.88;76.21
38630;BME280;24384;51.988;4.644;2023-03-13T10:03:14;99515.16;;;13.75;77.69
38630;BME280;24384;51.988;4.644;2023-03-13T10:05:43;99524.16;;;13.59;78.26
38630;BME280;24384;51.988;4.644;2023-03-13T10:08:17;99552.72;;;13.94;76.21
38630;BME280;24384;51.988;4.644;2023-03-13T10:10:44;99508.94;;;14.14;76.18
38630;BME280;24384;51.988;4.644;2023-03-13T10:13:19;99512.84;;;14.47;78.43
38630;BME280;24384;51.988;4.644;2023-03-13T10:15:53;99516.25;;;14.62;74.07
38630;BME280;24384;51.988;4.644;2023-03-13T10:18:21;99523.31;;;14.75;74.33
38630;BME280;24384;51.988;4.644;2023-03-13T10:20:48;99514.00;;;14.56;75.09
38630;BME280;24384;51.988;4.644;2023-03-13T10:25:39;99507.78;;;14.19;74.97
38630;BME280;24384;51.988;4.644;2023-03-13T10:28:14;99545.09;;;14.15;71.88
38630;BME280;24384;51.988;4.644;2023-03-13T10:30:43;99528.78;;;14.22;72.52
38630;BME280;24384;51.988;4.644;2023-03-13T10:35:36;99511.28;;;14.32;72.30
38630;BME280;24384;51.988;4.644;2023-03-13T10:38:03;99519.84;;;14.48;70.46
38630;BME280;24384;51.988;4.644;2023-03-13T10:40:30;99496.72;;;14.38;70.40
38630;BME280;24384;51.988;4.644;2023-03-13T10:42:59;99503.81;;;14.76;69.57
38630;BME280;24384;51.988;4.644;2023-03-13T10:45:25;99501.19;;;15.24;67.37
38630;BME280;24384;51.988;4.644;2023-03-13T10:47:55;99502.63;;;15.04;66.85
38630;BME280;24384;51.988;4.644;2023-03-13T10:50:22;99490.44;;;15.50;66.70
38630;BME280;24384;51.988;4.644;2023-03-13T10:52:48;99497.72;;;15.59;66.11
38630;BME280;24384;51.988;4.644;2023-03-13T10:55:18;99460.72;;;15.80;64.82
38630;BME280;24384;51.988;4.644;2023-03-13T10:58:17;99454.66;;;15.78;65.11
38630;BME280;24384;51.988;4.644;2023-03-13T11:00:36;99467.16;;;16.11;63.96
38630;BME280;24384;51.988;4.644;2023-03-13T11:03:11;99464.22;;;16.03;62.50
38630;BME280;24384;51.988;4.644;2023-03-13T11:05:39;99490.13;;;16.46;62.78
38630;BME280;24384;51.988;4.644;2023-03-13T11:08:10;99475.63;;;16.28;63.04
38630;BME280;24384;51.988;4.644;2023-03-13T11:10:36;99464.13;;;16.39;61.63
38630;BME280;24384;51.988;4.644;2023-03-13T11:13:01;99459.41;;;16.08;60.99
38630;BME280;24384;51.988;4.644;2023-03-13T11:15:28;99482.78;;;15.34;63.47
38630;BME280;24384;51.988;4.644;2023-03-13T11:20:27;99442.59;;;15.38;62.69
38630;BME280;24384;51.988;4.644;2023-03-13T11:22:55;99461.22;;;15.61;61.60
38630;BME280;24384;51.988;4.644;2023-03-13T11:25:24;99498.91;;;15.79;60.81
38630;BME280;24384;51.988;4.644;2023-03-13T11:27:57;99484.25;;;15.85;61.32
38630;BME280;24384;51.988;4.644;2023-03-13T11:33:04;99466.78;;;15.58;60.05
38630;BME280;24384;51.988;4.644;2023-03-13T11:35:44;99461.09;;;15.87;60.61
38630;BME280;24384;51.988;4.644;2023-03-13T11:38:18;99481.63;;;16.98;56.60
38630;BME280;24384;51.988;4.644;2023-03-13T11:41:02;99505.44;;;17.11;54.58
38630;BME280;24384;51.988;4.644;2023-03-13T11:46:01;99468.22;;;17.21;52.36
38630;BME280;24384;51.988;4.644;2023-03-13T11:51:01;99443.75;;;16.83;53.85
38630;BME280;24384;51.988;4.644;2023-03-13T11:53:37;99466.41;;;16.43;55.71
38630;BME280;24384;51.988;4.644;2023-03-13T11:56:19;99472.91;;;15.94;56.46
38630;BME280;24384;51.988;4.644;2023-03-13T12:01:18;99498.34;;;17.65;52.12
38630;BME280;24384;51.988;4.644;2023-03-13T12:07:11;99461.50;;;18.63;51.53
38630;BME280;24384;51.988;4.644;2023-03-13T12:11:31;99418.13;;;18.80;50.62
38630;BME280;24384;51.988;4.644;2023-03-13T12:14:01;99444.66;;;17.91;51.94
38630;BME280;24384;51.988;4.644;2023-03-13T12:22:11;99427.91;;;16.81;56.16
38630;BME280;24384;51.988;4.644;2023-03-13T12:25:13;99429.41;;;16.52;56.00
38630;BME280;24384;51.988;4.644;2023-03-13T12:27:32;99441.63;;;16.20;57.58
38630;BME280;24384;51.988;4.644;2023-03-13T12:35:27;99416.72;;;16.44;57.66
38630;BME280;24384;51.988;4.644;2023-03-13T12:40:20;99433.72;;;17.94;51.76
38630;BME280;24384;51.988;4.644;2023-03-13T12:42:57;99437.19;;;18.15;52.68
38630;BME280;24384;51.988;4.644;2023-03-13T12:45:26;99419.38;;;18.76;49.40
38630;BME280;24384;51.988;4.644;2023-03-13T12:53:29;99422.31;;;16.96;55.13
38630;BME280;24384;51.988;4.644;2023-03-13T13:01:34;99423.78;;;16.77;54.60
38630;BME280;24384;51.988;4.644;2023-03-13T13:04:05;99414.94;;;16.88;55.46
38630;BME280;24384;51.988;4.644;2023-03-13T13:09:17;99407.81;;;16.89;52.39
38630;BME280;24384;51.988;4.644;2023-03-13T13:11:44;99438.50;;;16.38;55.07
38630;BME280;24384;51.988;4.644;2023-03-13T13:16:43;99436.69;;;16.04;53.50
38630;BME280;24384;51.988;4.644;2023-03-13T13:24:39;99361.75;;;15.99;53.72
38630;BME280;24384;51.988;4.644;2023-03-13T13:27:08;99425.53;;;15.88;53.75
38630;BME280;24384;51.988;4.644;2023-03-13T13:29:53;99435.22;;;15.78;53.97
38630;BME280;24384;51.988;4.644;2023-03-13T13:32:27;99364.16;;;15.80;55.19
38630;BME280;24384;51.988;4.644;2023-03-13T13:34:53;99407.34;;;15.48;54.26
38630;BME280;24384;51.988;4.644;2023-03-13T13:39:45;99394.88;;;14.77;57.28
38630;BME280;24384;51.988;4.644;2023-03-13T13:47:23;99403.56;;;15.86;53.72
38630;BME280;24384;51.988;4.644;2023-03-13T13:49:51;99381.34;;;15.87;55.50
38630;BME280;24384;51.988;4.644;2023-03-13T13:52:27;99368.28;;;15.95;54.61
38630;BME280;24384;51.988;4.644;2023-03-13T13:54:55;99377.09;;;16.07;53.47
38630;BME280;24384;51.988;4.644;2023-03-13T13:57:24;99348.72;;;15.96;52.59
38630;BME280;24384;51.988;4.644;2023-03-13T13:59:53;99356.31;;;16.12;53.69
38630;BME280;24384;51.988;4.644;2023-03-13T14:02:20;99347.44;;;16.34;50.97
38630;BME280;24384;51.988;4.644;2023-03-13T14:05:05;99360.59;;;16.36;51.11
38630;BME280;24384;51.988;4.644;2023-03-13T14:07:43;99339.06;;;16.82;50.58
38630;BME280;24384;51.988;4.644;2023-03-13T14:10:29;99346.25;;;16.71;50.90